LIBD/BRI METAR and TAF weather

Enter ICAO airport designator
Station Type Date Time Source
LIBD METAR 2022/01/26 14:50 UTC NOAA

LIBD 261450Z 33008KT 300V360 CAVOK 11/04 Q1025


Station Type Date Time Source
LIBD Decoded METAR 2022/01/26 14:50 UTC NOAA

Bari / Palese Macchie, Italy (LIBD) 41-08N 016-47E 49M
Jan 26, 2022 - 09:50 AM EST / 2022.01.26 1450 UTC
Wind: from the NNW (330 degrees) at 9 MPH (8 KT) (direction variable):0
Visibility: greater than 7 mile(s):0
Temperature: 51 F (11 C)
Dew Point: 39 F (4 C)
Relative Humidity: 61%
Pressure (altimeter): 30.27 in. Hg (1025 hPa)
ob: LIBD 261450Z 33008KT 300V360 CAVOK 11/04 Q1025
cycle: 15

Station Type Date Time Source
LIBD TAF 2022/01/26 12:24 UTC NOAA

TAF TAF LIBD 261100Z 2612/2712 32010KT 9999 SCT030
BECMG 2619/2621 26008KT
BECMG 2709/2711 33010KT

Example: see airport list